sensor_id;sensor_type;location;lat;lon;timestamp;temperature;humidity
16515;DHT22;8370;52.556;7.970;2023-12-04T00:00:22;0.10;99.90
16515;DHT22;8370;52.556;7.970;2023-12-04T00:02:48;0.10;99.90
16515;DHT22;8370;52.556;7.970;2023-12-04T00:05:13;0.10;99.90
16515;DHT22;8370;52.556;7.970;2023-12-04T00:07:39;0.00;99.90
16515;DHT22;8370;52.556;7.970;2023-12-04T00:10:04;0.10;99.90
16515;DHT22;8370;52.556;7.970;2023-12-04T00:12:30;0.10;99.90
16515;DHT22;8370;52.556;7.970;2023-12-04T00:14:55;0.00;99.90
16515;DHT22;8370;52.556;7.970;2023-12-04T00:17:20;0.00;99.90
16515;DHT22;8370;52.556;7.970;2023-12-04T00:19:47;0.00;99.90
16515;DHT22;8370;52.556;7.970;2023-12-04T00:22:13;0.00;99.90
16515;DHT22;8370;52.556;7.970;2023-12-04T00:24:38;0.10;99.90
16515;DHT22;8370;52.556;7.970;2023-12-04T00:27:04;0.10;99.90
16515;DHT22;8370;52.556;7.970;2023-12-04T00:29:29;0.10;99.90
16515;DHT22;8370;52.556;7.970;2023-12-04T00:31:55;0.10;99.90
16515;DHT22;8370;52.556;7.970;2023-12-04T00:34:22;0.10;99.90
16515;DHT22;8370;52.556;7.970;2023-12-04T00:36:47;0.20;99.90
16515;DHT22;8370;52.556;7.970;2023-12-04T00:39:13;0.20;99.90
16515;DHT22;8370;52.556;7.970;2023-12-04T00:41:38;0.10;99.90
16515;DHT22;8370;52.556;7.970;2023-12-04T00:44:04;0.10;99.90
16515;DHT22;8370;52.556;7.970;2023-12-04T00:46:29;0.10;99.90
16515;DHT22;8370;52.556;7.970;2023-12-04T00:48:55;0.10;99.90
16515;DHT22;8370;52.556;7.970;2023-12-04T00:51:20;0.10;99.90
16515;DHT22;8370;52.556;7.970;2023-12-04T00:53:45;0.10;99.90
16515;DHT22;8370;52.556;7.970;2023-12-04T00:56:11;0.20;99.90
16515;DHT22;8370;52.556;7.970;2023-12-04T00:58:36;0.10;99.90
16515;DHT22;8370;52.556;7.970;2023-12-04T01:01:02;0.10;99.90
16515;DHT22;8370;52.556;7.970;2023-12-04T01:03:27;0.10;99.90
16515;DHT22;8370;52.556;7.970;2023-12-04T01:05:53;0.20;99.90
16515;DHT22;8370;52.556;7.970;2023-12-04T01:08:18;0.20;99.90
16515;DHT22;8370;52.556;7.970;2023-12-04T01:10:43;0.30;99.90
16515;DHT22;8370;52.556;7.970;2023-12-04T01:13:09;0.30;99.90
16515;DHT22;8370;52.556;7.970;2023-12-04T01:15:34;0.20;99.90
16515;DHT22;8370;52.556;7.970;2023-12-04T01:18:00;0.20;99.90
16515;DHT22;8370;52.556;7.970;2023-12-04T01:20:26;0.20;99.90
16515;DHT22;8370;52.556;7.970;2023-12-04T01:22:51;0.10;99.90
16515;DHT22;8370;52.556;7.970;2023-12-04T01:25:17;0.10;99.90
16515;DHT22;8370;52.556;7.970;2023-12-04T01:27:42;0.20;99.90
16515;DHT22;8370;52.556;7.970;2023-12-04T01:30:08;0.20;99.90
16515;DHT22;8370;52.556;7.970;2023-12-04T01:32:36;0.20;99.90
16515;DHT22;8370;52.556;7.970;2023-12-04T01:35:02;0.30;99.90
16515;DHT22;8370;52.556;7.970;2023-12-04T01:37:27;0.30;99.90
16515;DHT22;8370;52.556;7.970;2023-12-04T01:39:52;0.20;99.90
16515;DHT22;8370;52.556;7.970;2023-12-04T01:42:18;0.30;99.90
16515;DHT22;8370;52.556;7.970;2023-12-04T01:44:43;0.20;99.90
16515;DHT22;8370;52.556;7.970;2023-12-04T01:47:09;0.30;99.90
16515;DHT22;8370;52.556;7.970;2023-12-04T01:49:35;0.30;99.90
16515;DHT22;8370;52.556;7.970;2023-12-04T01:52:01;0.30;99.90
16515;DHT22;8370;52.556;7.970;2023-12-04T01:54:27;0.30;99.90
16515;DHT22;8370;52.556;7.970;2023-12-04T01:56:52;0.30;99.90
16515;DHT22;8370;52.556;7.970;2023-12-04T01:59:18;0.30;99.90
16515;DHT22;8370;52.556;7.970;2023-12-04T02:01:43;0.30;99.90
16515;DHT22;8370;52.556;7.970;2023-12-04T02:04:09;0.30;99.90
16515;DHT22;8370;52.556;7.970;2023-12-04T02:06:34;0.30;99.90
16515;DHT22;8370;52.556;7.970;2023-12-04T02:09:00;0.30;99.90
16515;DHT22;8370;52.556;7.970;2023-12-04T02:11:27;0.40;99.90
16515;DHT22;8370;52.556;7.970;2023-12-04T02:13:52;0.30;99.90
16515;DHT22;8370;52.556;7.970;2023-12-04T02:16:18;0.30;99.90
16515;DHT22;8370;52.556;7.970;2023-12-04T02:18:45;0.40;99.90
16515;DHT22;8370;52.556;7.970;2023-12-04T02:21:10;0.40;99.90
16515;DHT22;8370;52.556;7.970;2023-12-04T02:23:36;0.30;99.90
16515;DHT22;8370;52.556;7.970;2023-12-04T02:26:03;0.40;99.90
16515;DHT22;8370;52.556;7.970;2023-12-04T02:28:31;0.30;99.90
16515;DHT22;8370;52.556;7.970;2023-12-04T02:30:57;0.30;99.90
16515;DHT22;8370;52.556;7.970;2023-12-04T02:33:23;0.40;99.90
16515;DHT22;8370;52.556;7.970;2023-12-04T02:35:50;0.30;99.90
16515;DHT22;8370;52.556;7.970;2023-12-04T02:38:15;0.40;99.90
16515;DHT22;8370;52.556;7.970;2023-12-04T02:40:41;0.30;99.90
16515;DHT22;8370;52.556;7.970;2023-12-04T02:43:06;0.40;99.90
16515;DHT22;8370;52.556;7.970;2023-12-04T02:45:32;0.40;99.90
16515;DHT22;8370;52.556;7.970;2023-12-04T02:47:57;0.30;99.90
16515;DHT22;8370;52.556;7.970;2023-12-04T02:50:23;0.30;99.90
16515;DHT22;8370;52.556;7.970;2023-12-04T02:52:48;0.40;99.90
16515;DHT22;8370;52.556;7.970;2023-12-04T02:55:14;0.40;99.90
16515;DHT22;8370;52.556;7.970;2023-12-04T02:57:39;0.40;99.90
16515;DHT22;8370;52.556;7.970;2023-12-04T03:00:05;0.50;99.90
16515;DHT22;8370;52.556;7.970;2023-12-04T03:02:31;0.40;99.90
16515;DHT22;8370;52.556;7.970;2023-12-04T03:04:56;0.40;99.90
16515;DHT22;8370;52.556;7.970;2023-12-04T03:07:22;0.50;99.90
16515;DHT22;8370;52.556;7.970;2023-12-04T03:09:49;0.50;99.90
16515;DHT22;8370;52.556;7.970;2023-12-04T03:12:15;0.50;99.90
16515;DHT22;8370;52.556;7.970;2023-12-04T03:14:40;0.50;99.90
16515;DHT22;8370;52.556;7.970;2023-12-04T03:17:06;0.50;99.90
16515;DHT22;8370;52.556;7.970;2023-12-04T03:19:31;0.50;99.90
16515;DHT22;8370;52.556;7.970;2023-12-04T03:21:57;0.50;99.90
16515;DHT22;8370;52.556;7.970;2023-12-04T03:24:22;0.50;99.90
16515;DHT22;8370;52.556;7.970;2023-12-04T03:26:47;0.50;99.90
16515;DHT22;8370;52.556;7.970;2023-12-04T03:29:13;0.50;99.90
16515;DHT22;8370;52.556;7.970;2023-12-04T03:31:38;0.50;99.90
16515;DHT22;8370;52.556;7.970;2023-12-04T03:34:04;0.60;99.90
16515;DHT22;8370;52.556;7.970;2023-12-04T03:36:29;0.50;99.90
16515;DHT22;8370;52.556;7.970;2023-12-04T03:38:54;0.60;99.90
16515;DHT22;8370;52.556;7.970;2023-12-04T03:41:20;0.50;99.90
16515;DHT22;8370;52.556;7.970;2023-12-04T03:43:47;0.50;99.90
16515;DHT22;8370;52.556;7.970;2023-12-04T03:46:12;0.50;99.90
16515;DHT22;8370;52.556;7.970;2023-12-04T03:48:38;0.50;99.90
16515;DHT22;8370;52.556;7.970;2023-12-04T03:51:04;0.40;99.90
16515;DHT22;8370;52.556;7.970;2023-12-04T03:53:30;0.50;99.90
16515;DHT22;8370;52.556;7.970;2023-12-04T03:55:57;0.50;99.90
16515;DHT22;8370;52.556;7.970;2023-12-04T03:58:23;0.40;99.90
16515;DHT22;8370;52.556;7.970;2023-12-04T04:00:48;0.50;99.90
16515;DHT22;8370;52.556;7.970;2023-12-04T04:03:14;0.50;99.90
16515;DHT22;8370;52.556;7.970;2023-12-04T04:05:39;0.40;99.90
16515;DHT22;8370;52.556;7.970;2023-12-04T04:08:04;0.40;99.90
16515;DHT22;8370;52.556;7.970;2023-12-04T04:10:33;0.40;99.90
16515;DHT22;8370;52.556;7.970;2023-12-04T04:12:59;0.40;99.90
16515;DHT22;8370;52.556;7.970;2023-12-04T04:15:25;0.40;99.90
16515;DHT22;8370;52.556;7.970;2023-12-04T04:17:51;0.30;99.90
16515;DHT22;8370;52.556;7.970;2023-12-04T04:20:16;0.30;99.90
16515;DHT22;8370;52.556;7.970;2023-12-04T04:22:42;0.30;99.90
16515;DHT22;8370;52.556;7.970;2023-12-04T04:25:07;0.30;99.90
16515;DHT22;8370;52.556;7.970;2023-12-04T04:27:33;0.30;99.90
16515;DHT22;8370;52.556;7.970;2023-12-04T04:29:58;0.30;99.90
16515;DHT22;8370;52.556;7.970;2023-12-04T04:32:24;0.20;99.90
16515;DHT22;8370;52.556;7.970;2023-12-04T04:34:49;0.20;99.90
16515;DHT22;8370;52.556;7.970;2023-12-04T04:37:15;0.20;99.90
16515;DHT22;8370;52.556;7.970;2023-12-04T04:39:40;0.10;99.90
16515;DHT22;8370;52.556;7.970;2023-12-04T04:42:06;0.10;99.90
16515;DHT22;8370;52.556;7.970;2023-12-04T04:44:31;0.10;99.90
16515;DHT22;8370;52.556;7.970;2023-12-04T04:46:57;0.00;99.90
16515;DHT22;8370;52.556;7.970;2023-12-04T04:49:22;-0.10;99.90
16515;DHT22;8370;52.556;7.970;2023-12-04T04:51:47;-0.10;99.90
16515;DHT22;8370;52.556;7.970;2023-12-04T04:54:13;-0.10;99.90
16515;DHT22;8370;52.556;7.970;2023-12-04T04:56:38;-0.10;99.90
16515;DHT22;8370;52.556;7.970;2023-12-04T04:59:04;-0.10;99.90
16515;DHT22;8370;52.556;7.970;2023-12-04T05:01:29;-0.10;99.90
16515;DHT22;8370;52.556;7.970;2023-12-04T05:03:55;-0.10;99.90
16515;DHT22;8370;52.556;7.970;2023-12-04T05:06:20;-0.10;99.90
16515;DHT22;8370;52.556;7.970;2023-12-04T05:08:48;-0.10;99.90
16515;DHT22;8370;52.556;7.970;2023-12-04T05:11:16;-0.10;99.90
16515;DHT22;8370;52.556;7.970;2023-12-04T05:13:42;-0.10;99.90
16515;DHT22;8370;52.556;7.970;2023-12-04T05:16:07;-0.10;99.90
16515;DHT22;8370;52.556;7.970;2023-12-04T05:18:33;-0.10;99.90
16515;DHT22;8370;52.556;7.970;2023-12-04T05:20:58;-0.10;99.90
16515;DHT22;8370;52.556;7.970;2023-12-04T05:23:24;0.00;99.90
16515;DHT22;8370;52.556;7.970;2023-12-04T05:25:49;0.00;99.90
16515;DHT22;8370;52.556;7.970;2023-12-04T05:28:15;0.00;99.90
16515;DHT22;8370;52.556;7.970;2023-12-04T05:30:40;0.00;99.90
16515;DHT22;8370;52.556;7.970;2023-12-04T05:33:05;0.00;99.90
16515;DHT22;8370;52.556;7.970;2023-12-04T05:35:31;0.10;99.90
16515;DHT22;8370;52.556;7.970;2023-12-04T05:37:59;0.10;99.90
16515;DHT22;8370;52.556;7.970;2023-12-04T05:40:25;0.00;99.90
16515;DHT22;8370;52.556;7.970;2023-12-04T05:42:50;0.10;99.90
16515;DHT22;8370;52.556;7.970;2023-12-04T05:45:15;0.10;99.90
16515;DHT22;8370;52.556;7.970;2023-12-04T05:47:41;0.10;99.90
16515;DHT22;8370;52.556;7.970;2023-12-04T05:50:06;0.10;99.90
16515;DHT22;8370;52.556;7.970;2023-12-04T05:52:32;0.10;99.90
16515;DHT22;8370;52.556;7.970;2023-12-04T05:54:57;0.10;99.90
16515;DHT22;8370;52.556;7.970;2023-12-04T05:57:23;0.10;99.90
16515;DHT22;8370;52.556;7.970;2023-12-04T05:59:48;0.10;99.90
16515;DHT22;8370;52.556;7.970;2023-12-04T06:02:14;0.10;99.90
16515;DHT22;8370;52.556;7.970;2023-12-04T06:04:40;0.10;99.90
16515;DHT22;8370;52.556;7.970;2023-12-04T06:07:06;0.20;99.90
16515;DHT22;8370;52.556;7.970;2023-12-04T06:09:32;0.20;99.90
16515;DHT22;8370;52.556;7.970;2023-12-04T06:11:57;0.10;99.90
16515;DHT22;8370;52.556;7.970;2023-12-04T06:14:23;0.20;99.90
16515;DHT22;8370;52.556;7.970;2023-12-04T06:16:48;0.30;99.90
16515;DHT22;8370;52.556;7.970;2023-12-04T06:19:14;0.10;99.90
16515;DHT22;8370;52.556;7.970;2023-12-04T06:21:39;0.20;99.90
16515;DHT22;8370;52.556;7.970;2023-12-04T06:24:05;0.20;99.90
16515;DHT22;8370;52.556;7.970;2023-12-04T06:26:31;0.20;99.90
16515;DHT22;8370;52.556;7.970;2023-12-04T06:28:57;0.20;99.90
16515;DHT22;8370;52.556;7.970;2023-12-04T06:31:22;0.20;99.90
16515;DHT22;8370;52.556;7.970;2023-12-04T06:33:48;0.20;99.90
16515;DHT22;8370;52.556;7.970;2023-12-04T06:36:13;0.20;99.90
16515;DHT22;8370;52.556;7.970;2023-12-04T06:38:40;0.20;99.90
16515;DHT22;8370;52.556;7.970;2023-12-04T06:41:06;0.20;99.90
16515;DHT22;8370;52.556;7.970;2023-12-04T06:43:32;0.30;99.90
16515;DHT22;8370;52.556;7.970;2023-12-04T06:45:58;0.30;99.90
16515;DHT22;8370;52.556;7.970;2023-12-04T06:48:24;0.30;99.90
16515;DHT22;8370;52.556;7.970;2023-12-04T06:50:49;0.30;99.90
16515;DHT22;8370;52.556;7.970;2023-12-04T06:53:15;0.30;99.90
16515;DHT22;8370;52.556;7.970;2023-12-04T06:55:40;0.30;99.90
16515;DHT22;8370;52.556;7.970;2023-12-04T06:58:05;0.40;99.90
16515;DHT22;8370;52.556;7.970;2023-12-04T07:00:31;0.40;99.90
16515;DHT22;8370;52.556;7.970;2023-12-04T07:02:56;0.40;99.90
16515;DHT22;8370;52.556;7.970;2023-12-04T07:05:22;0.40;99.90
16515;DHT22;8370;52.556;7.970;2023-12-04T07:07:47;0.50;99.90
16515;DHT22;8370;52.556;7.970;2023-12-04T07:10:13;0.50;99.90
16515;DHT22;8370;52.556;7.970;2023-12-04T07:12:42;0.50;99.90
16515;DHT22;8370;52.556;7.970;2023-12-04T07:15:08;0.50;99.90
16515;DHT22;8370;52.556;7.970;2023-12-04T07:17:35;0.50;99.90
16515;DHT22;8370;52.556;7.970;2023-12-04T07:20:00;0.60;99.90
16515;DHT22;8370;52.556;7.970;2023-12-04T07:22:25;0.50;99.90
16515;DHT22;8370;52.556;7.970;2023-12-04T07:24:51;0.50;99.90
16515;DHT22;8370;52.556;7.970;2023-12-04T07:27:16;0.60;99.90
16515;DHT22;8370;52.556;7.970;2023-12-04T07:29:42;0.60;99.90
16515;DHT22;8370;52.556;7.970;2023-12-04T07:32:07;0.70;99.90
16515;DHT22;8370;52.556;7.970;2023-12-04T07:34:32;0.70;99.90
16515;DHT22;8370;52.556;7.970;2023-12-04T07:36:58;0.70;99.90
16515;DHT22;8370;52.556;7.970;2023-12-04T07:39:23;0.60;99.90
16515;DHT22;8370;52.556;7.970;2023-12-04T07:41:49;0.60;99.90
16515;DHT22;8370;52.556;7.970;2023-12-04T07:44:15;0.60;99.90
16515;DHT22;8370;52.556;7.970;2023-12-04T07:46:41;0.70;99.90
16515;DHT22;8370;52.556;7.970;2023-12-04T07:49:06;0.70;99.90
16515;DHT22;8370;52.556;7.970;2023-12-04T07:51:32;0.70;99.90
16515;DHT22;8370;52.556;7.970;2023-12-04T07:53:57;0.70;99.90
16515;DHT22;8370;52.556;7.970;2023-12-04T07:56:23;0.70;99.90
16515;DHT22;8370;52.556;7.970;2023-12-04T07:58:48;0.70;99.90
16515;DHT22;8370;52.556;7.970;2023-12-04T08:01:14;0.70;99.90
16515;DHT22;8370;52.556;7.970;2023-12-04T08:03:40;0.80;99.90
16515;DHT22;8370;52.556;7.970;2023-12-04T08:06:05;0.80;99.90
16515;DHT22;8370;52.556;7.970;2023-12-04T08:08:31;0.80;99.90
16515;DHT22;8370;52.556;7.970;2023-12-04T08:10:57;0.80;99.90
16515;DHT22;8370;52.556;7.970;2023-12-04T08:13:22;0.70;99.90
16515;DHT22;8370;52.556;7.970;2023-12-04T08:15:48;0.70;99.90
16515;DHT22;8370;52.556;7.970;2023-12-04T08:18:13;0.70;99.90
16515;DHT22;8370;52.556;7.970;2023-12-04T08:20:39;0.70;99.90
16515;DHT22;8370;52.556;7.970;2023-12-04T08:23:04;0.80;99.90
16515;DHT22;8370;52.556;7.970;2023-12-04T08:25:30;0.80;99.90
16515;DHT22;8370;52.556;7.970;2023-12-04T08:27:57;0.80;99.90
16515;DHT22;8370;52.556;7.970;2023-12-04T08:30:23;0.80;99.90
16515;DHT22;8370;52.556;7.970;2023-12-04T08:32:48;0.90;99.90
16515;DHT22;8370;52.556;7.970;2023-12-04T08:35:14;0.90;99.90
16515;DHT22;8370;52.556;7.970;2023-12-04T08:37:39;1.00;99.90
16515;DHT22;8370;52.556;7.970;2023-12-04T08:40:05;0.90;99.90
16515;DHT22;8370;52.556;7.970;2023-12-04T08:42:33;1.00;99.90
16515;DHT22;8370;52.556;7.970;2023-12-04T08:44:59;1.00;99.90
16515;DHT22;8370;52.556;7.970;2023-12-04T08:47:24;1.10;99.90
16515;DHT22;8370;52.556;7.970;2023-12-04T08:49:50;1.10;99.90
16515;DHT22;8370;52.556;7.970;2023-12-04T08:52:15;1.10;99.90
16515;DHT22;8370;52.556;7.970;2023-12-04T08:54:41;1.10;99.90
16515;DHT22;8370;52.556;7.970;2023-12-04T08:57:07;1.10;99.90
16515;DHT22;8370;52.556;7.970;2023-12-04T08:59:33;1.10;99.90
16515;DHT22;8370;52.556;7.970;2023-12-04T09:01:58;1.10;99.90
16515;DHT22;8370;52.556;7.970;2023-12-04T09:04:24;1.20;99.90
16515;DHT22;8370;52.556;7.970;2023-12-04T09:06:49;1.20;99.90
16515;DHT22;8370;52.556;7.970;2023-12-04T09:09:14;1.20;99.90
16515;DHT22;8370;52.556;7.970;2023-12-04T09:11:41;1.20;99.90
16515;DHT22;8370;52.556;7.970;2023-12-04T09:14:07;1.20;99.90
16515;DHT22;8370;52.556;7.970;2023-12-04T09:16:33;1.30;99.90
16515;DHT22;8370;52.556;7.970;2023-12-04T09:18:58;1.30;99.90
16515;DHT22;8370;52.556;7.970;2023-12-04T09:21:24;1.30;99.90
16515;DHT22;8370;52.556;7.970;2023-12-04T09:23:49;1.30;99.90
16515;DHT22;8370;52.556;7.970;2023-12-04T09:26:15;1.30;99.90
16515;DHT22;8370;52.556;7.970;2023-12-04T09:28:41;1.30;99.90
16515;DHT22;8370;52.556;7.970;2023-12-04T09:31:08;1.30;99.90
16515;DHT22;8370;52.556;7.970;2023-12-04T09:33:33;1.40;99.90
16515;DHT22;8370;52.556;7.970;2023-12-04T09:35:58;1.30;99.90
16515;DHT22;8370;52.556;7.970;2023-12-04T09:38:24;1.40;99.90
16515;DHT22;8370;52.556;7.970;2023-12-04T09:40:50;1.50;99.90
16515;DHT22;8370;52.556;7.970;2023-12-04T09:43:17;1.50;99.90
16515;DHT22;8370;52.556;7.970;2023-12-04T09:45:43;1.60;99.90
16515;DHT22;8370;52.556;7.970;2023-12-04T09:48:09;1.70;99.90
16515;DHT22;8370;52.556;7.970;2023-12-04T09:50:35;1.70;99.90
16515;DHT22;8370;52.556;7.970;2023-12-04T09:53:00;1.70;99.90
16515;DHT22;8370;52.556;7.970;2023-12-04T09:55:27;1.70;99.90
16515;DHT22;8370;52.556;7.970;2023-12-04T09:57:52;1.60;99.90
16515;DHT22;8370;52.556;7.970;2023-12-04T10:00:19;1.60;99.90
16515;DHT22;8370;52.556;7.970;2023-12-04T10:02:45;1.60;99.90
16515;DHT22;8370;52.556;7.970;2023-12-04T10:05:11;1.60;99.90
16515;DHT22;8370;52.556;7.970;2023-12-04T10:07:36;1.60;99.90
16515;DHT22;8370;52.556;7.970;2023-12-04T10:10:03;1.70;99.90
16515;DHT22;8370;52.556;7.970;2023-12-04T10:12:30;1.60;99.90
16515;DHT22;8370;52.556;7.970;2023-12-04T10:15:03;1.70;99.90
16515;DHT22;8370;52.556;7.970;2023-12-04T10:17:28;1.70;99.90
16515;DHT22;8370;52.556;7.970;2023-12-04T10:20:08;1.70;99.90
16515;DHT22;8370;52.556;7.970;2023-12-04T10:22:51;1.70;99.90
16515;DHT22;8370;52.556;7.970;2023-12-04T10:25:17;1.70;99.90
16515;DHT22;8370;52.556;7.970;2023-12-04T10:27:43;1.80;99.90
16515;DHT22;8370;52.556;7.970;2023-12-04T10:30:09;1.80;99.90
16515;DHT22;8370;52.556;7.970;2023-12-04T10:32:40;1.80;99.90
16515;DHT22;8370;52.556;7.970;2023-12-04T10:35:07;1.80;99.90
16515;DHT22;8370;52.556;7.970;2023-12-04T10:37:38;1.80;99.90
16515;DHT22;8370;52.556;7.970;2023-12-04T10:40:03;1.80;99.90
16515;DHT22;8370;52.556;7.970;2023-12-04T10:42:30;1.80;99.90
16515;DHT22;8370;52.556;7.970;2023-12-04T10:44:56;1.80;99.90
16515;DHT22;8370;52.556;7.970;2023-12-04T10:47:22;1.80;99.90
16515;DHT22;8370;52.556;7.970;2023-12-04T10:49:51;1.80;99.90
16515;DHT22;8370;52.556;7.970;2023-12-04T10:52:17;1.90;99.90
16515;DHT22;8370;52.556;7.970;2023-12-04T10:54:47;1.90;99.90
16515;DHT22;8370;52.556;7.970;2023-12-04T10:57:12;2.00;99.90
16515;DHT22;8370;52.556;7.970;2023-12-04T10:59:38;2.00;99.90
16515;DHT22;8370;52.556;7.970;2023-12-04T11:02:04;2.00;99.90
16515;DHT22;8370;52.556;7.970;2023-12-04T11:04:30;1.90;99.90
16515;DHT22;8370;52.556;7.970;2023-12-04T11:06:56;1.90;99.90
16515;DHT22;8370;52.556;7.970;2023-12-04T11:09:23;2.00;99.90
16515;DHT22;8370;52.556;7.970;2023-12-04T11:11:53;1.90;99.90
16515;DHT22;8370;52.556;7.970;2023-12-04T11:14:22;2.00;99.90
16515;DHT22;8370;52.556;7.970;2023-12-04T11:16:48;2.00;99.90
16515;DHT22;8370;52.556;7.970;2023-12-04T11:19:22;2.00;99.90
16515;DHT22;8370;52.556;7.970;2023-12-04T11:21:49;2.00;99.90
16515;DHT22;8370;52.556;7.970;2023-12-04T11:24:16;2.10;99.90
16515;DHT22;8370;52.556;7.970;2023-12-04T11:26:42;2.10;99.90
16515;DHT22;8370;52.556;7.970;2023-12-04T11:29:08;2.10;99.90
16515;DHT22;8370;52.556;7.970;2023-12-04T11:31:35;2.20;99.90
16515;DHT22;8370;52.556;7.970;2023-12-04T11:34:01;2.10;99.90
16515;DHT22;8370;52.556;7.970;2023-12-04T11:36:27;2.20;99.90
16515;DHT22;8370;52.556;7.970;2023-12-04T11:38:53;2.20;99.90
16515;DHT22;8370;52.556;7.970;2023-12-04T11:43:44;2.00;99.90
16515;DHT22;8370;52.556;7.970;2023-12-04T11:46:10;2.10;99.90
16515;DHT22;8370;52.556;7.970;2023-12-04T11:48:36;2.10;99.90
16515;DHT22;8370;52.556;7.970;2023-12-04T11:51:02;2.10;99.90
16515;DHT22;8370;52.556;7.970;2023-12-04T11:53:27;2.10;99.90
16515;DHT22;8370;52.556;7.970;2023-12-04T11:55:55;2.10;99.90
16515;DHT22;8370;52.556;7.970;2023-12-04T11:58:20;2.10;99.90
16515;DHT22;8370;52.556;7.970;2023-12-04T12:00:46;2.10;99.90
16515;DHT22;8370;52.556;7.970;2023-12-04T12:03:14;2.10;99.90
16515;DHT22;8370;52.556;7.970;2023-12-04T12:05:39;2.10;99.90
16515;DHT22;8370;52.556;7.970;2023-12-04T12:08:06;2.10;99.90
16515;DHT22;8370;52.556;7.970;2023-12-04T12:10:33;2.20;99.90
16515;DHT22;8370;52.556;7.970;2023-12-04T12:12:59;2.20;99.90
16515;DHT22;8370;52.556;7.970;2023-12-04T12:15:24;2.20;99.90
16515;DHT22;8370;52.556;7.970;2023-12-04T12:17:50;2.20;99.90
16515;DHT22;8370;52.556;7.970;2023-12-04T12:20:18;2.20;99.90
16515;DHT22;8370;52.556;7.970;2023-12-04T12:22:45;2.20;99.90
16515;DHT22;8370;52.556;7.970;2023-12-04T12:25:11;2.10;99.90
16515;DHT22;8370;52.556;7.970;2023-12-04T12:27:37;2.10;99.90
16515;DHT22;8370;52.556;7.970;2023-12-04T12:30:02;2.20;99.90
16515;DHT22;8370;52.556;7.970;2023-12-04T12:32:33;2.10;99.90
16515;DHT22;8370;52.556;7.970;2023-12-04T12:34:58;2.20;99.90
16515;DHT22;8370;52.556;7.970;2023-12-04T12:37:24;2.20;99.90
16515;DHT22;8370;52.556;7.970;2023-12-04T12:39:49;2.20;99.90
16515;DHT22;8370;52.556;7.970;2023-12-04T12:42:25;2.10;99.90
16515;DHT22;8370;52.556;7.970;2023-12-04T12:44:51;2.10;99.90
16515;DHT22;8370;52.556;7.970;2023-12-04T12:47:17;2.20;99.90
16515;DHT22;8370;52.556;7.970;2023-12-04T12:49:43;2.20;99.90
16515;DHT22;8370;52.556;7.970;2023-12-04T12:52:08;2.20;99.90
16515;DHT22;8370;52.556;7.970;2023-12-04T12:54:41;2.30;99.90
16515;DHT22;8370;52.556;7.970;2023-12-04T12:57:07;2.30;99.90
16515;DHT22;8370;52.556;7.970;2023-12-04T12:59:33;2.30;99.90
16515;DHT22;8370;52.556;7.970;2023-12-04T13:01:58;2.20;99.90
16515;DHT22;8370;52.556;7.970;2023-12-04T13:04:25;2.20;99.90
16515;DHT22;8370;52.556;7.970;2023-12-04T13:06:51;2.20;99.90
16515;DHT22;8370;52.556;7.970;2023-12-04T13:09:16;2.20;99.90
16515;DHT22;8370;52.556;7.970;2023-12-04T13:11:44;2.30;99.90
16515;DHT22;8370;52.556;7.970;2023-12-04T13:14:10;2.30;99.90
16515;DHT22;8370;52.556;7.970;2023-12-04T13:16:35;2.40;99.90
16515;DHT22;8370;52.556;7.970;2023-12-04T13:19:01;2.30;99.90
16515;DHT22;8370;52.556;7.970;2023-12-04T13:21:27;2.10;99.90
16515;DHT22;8370;52.556;7.970;2023-12-04T13:23:53;2.10;99.90
16515;DHT22;8370;52.556;7.970;2023-12-04T13:26:19;2.20;99.90
16515;DHT22;8370;52.556;7.970;2023-12-04T13:28:45;2.10;99.90
16515;DHT22;8370;52.556;7.970;2023-12-04T13:31:11;2.10;99.90
16515;DHT22;8370;52.556;7.970;2023-12-04T13:33:36;2.10;99.90
16515;DHT22;8370;52.556;7.970;2023-12-04T13:36:02;2.30;99.90
16515;DHT22;8370;52.556;7.970;2023-12-04T13:38:27;2.30;99.90
16515;DHT22;8370;52.556;7.970;2023-12-04T13:40:53;2.30;99.90
16515;DHT22;8370;52.556;7.970;2023-12-04T13:43:28;2.40;99.90
16515;DHT22;8370;52.556;7.970;2023-12-04T13:46:12;2.40;99.90
16515;DHT22;8370;52.556;7.970;2023-12-04T13:48:37;2.40;99.90
16515;DHT22;8370;52.556;7.970;2023-12-04T13:51:09;2.40;99.90
16515;DHT22;8370;52.556;7.970;2023-12-04T13:53:34;2.50;99.90
16515;DHT22;8370;52.556;7.970;2023-12-04T13:56:01;2.40;99.90
16515;DHT22;8370;52.556;7.970;2023-12-04T13:58:26;2.40;99.90
16515;DHT22;8370;52.556;7.970;2023-12-04T14:01:01;2.40;99.90
16515;DHT22;8370;52.556;7.970;2023-12-04T14:03:36;2.50;99.90
16515;DHT22;8370;52.556;7.970;2023-12-04T14:06:02;2.60;99.90
16515;DHT22;8370;52.556;7.970;2023-12-04T14:08:27;2.50;99.90
16515;DHT22;8370;52.556;7.970;2023-12-04T14:10:53;2.50;99.90
16515;DHT22;8370;52.556;7.970;2023-12-04T14:13:18;2.40;99.90
16515;DHT22;8370;52.556;7.970;2023-12-04T14:15:45;2.40;99.90
16515;DHT22;8370;52.556;7.970;2023-12-04T14:18:11;2.40;99.90
16515;DHT22;8370;52.556;7.970;2023-12-04T14:20:36;2.40;99.90
16515;DHT22;8370;52.556;7.970;2023-12-04T14:23:02;2.30;99.90
16515;DHT22;8370;52.556;7.970;2023-12-04T14:25:27;2.30;99.90
16515;DHT22;8370;52.556;7.970;2023-12-04T14:27:53;2.20;99.90
16515;DHT22;8370;52.556;7.970;2023-12-04T14:30:18;2.20;99.90
16515;DHT22;8370;52.556;7.970;2023-12-04T14:32:44;2.10;99.90
16515;DHT22;8370;52.556;7.970;2023-12-04T14:35:10;2.10;99.90
16515;DHT22;8370;52.556;7.970;2023-12-04T14:37:35;2.10;99.90
16515;DHT22;8370;52.556;7.970;2023-12-04T14:40:01;2.10;99.90
16515;DHT22;8370;52.556;7.970;2023-12-04T14:42:27;2.00;99.90
16515;DHT22;8370;52.556;7.970;2023-12-04T14:44:52;1.90;99.90
16515;DHT22;8370;52.556;7.970;2023-12-04T14:47:18;1.90;99.90
16515;DHT22;8370;52.556;7.970;2023-12-04T14:49:43;1.80;99.90
16515;DHT22;8370;52.556;7.970;2023-12-04T14:52:09;1.80;99.90
16515;DHT22;8370;52.556;7.970;2023-12-04T14:54:36;1.90;99.90
16515;DHT22;8370;52.556;7.970;2023-12-04T14:57:17;1.90;99.90
16515;DHT22;8370;52.556;7.970;2023-12-04T15:00:01;1.80;99.90
16515;DHT22;8370;52.556;7.970;2023-12-04T15:02:33;1.80;99.90
16515;DHT22;8370;52.556;7.970;2023-12-04T15:05:18;1.80;99.90
16515;DHT22;8370;52.556;7.970;2023-12-04T15:08:02;1.80;99.90
16515;DHT22;8370;52.556;7.970;2023-12-04T15:11:00;1.80;99.90
16515;DHT22;8370;52.556;7.970;2023-12-04T15:13:44;1.90;99.90
16515;DHT22;8370;52.556;7.970;2023-12-04T15:16:28;1.80;99.90
16515;DHT22;8370;52.556;7.970;2023-12-04T15:19:02;1.80;99.90
16515;DHT22;8370;52.556;7.970;2023-12-04T15:21:30;1.80;99.90
16515;DHT22;8370;52.556;7.970;2023-12-04T15:23:56;1.80;99.90
16515;DHT22;8370;52.556;7.970;2023-12-04T15:26:21;1.70;99.90
16515;DHT22;8370;52.556;7.970;2023-12-04T15:28:47;1.70;99.90
16515;DHT22;8370;52.556;7.970;2023-12-04T15:31:12;1.70;99.90
16515;DHT22;8370;52.556;7.970;2023-12-04T15:33:37;1.70;99.90
16515;DHT22;8370;52.556;7.970;2023-12-04T15:36:03;1.70;99.90
16515;DHT22;8370;52.556;7.970;2023-12-04T15:38:29;1.70;99.90
16515;DHT22;8370;52.556;7.970;2023-12-04T15:40:57;1.60;99.90
16515;DHT22;8370;52.556;7.970;2023-12-04T15:43:23;1.60;99.90
16515;DHT22;8370;52.556;7.970;2023-12-04T15:45:48;1.70;99.90
16515;DHT22;8370;52.556;7.970;2023-12-04T15:48:13;1.80;99.90
16515;DHT22;8370;52.556;7.970;2023-12-04T15:50:39;1.80;99.90
16515;DHT22;8370;52.556;7.970;2023-12-04T15:53:04;1.90;99.90
16515;DHT22;8370;52.556;7.970;2023-12-04T15:55:30;1.90;99.90
16515;DHT22;8370;52.556;7.970;2023-12-04T15:57:56;1.90;99.90